Weather History for Chandler, OK

Change the Weather History Date:

Sunday, May 11, 2014

  Actual Average (KCUH) Record (KCUH)
Temperature  
Mean Temperature 80 °F -  
Max Temperature 87 °F 77 °F 95 °F (1963)
Min Temperature 73 °F 56 °F 40 °F (1952)
Cooling Degree Days 15    
Growing Degree Days 30 (Base 50)    
Moisture  
Dew Point 70 °F    
Average Humidity 74    
Maximum Humidity 100    
Minimum Humidity 52    
Precipitation  
Precipitation 0.00 in - - ()
Sea Level Pressure  
Sea Level Pressure 29.72 in    
Wind  
Wind Speed 17 mph (South)    
Max Wind Speed 28 mph    
Max Gust Speed 37 mph    
Visibility 10 miles    
Events      
Averages and records for this station are not official NWS values.
T = Trace of Precipitation, MM = Missing Value Source: NWS Daily Summary

Daily Weather History Graph

Daily Weather History Graph

Search for Another Location

Airport:

Trip Planner

Search our weather history database for the weather conditions in past years. The results will help you decide how hot, cold, wet, or windy it might be!

Date:

Astronomy

May. 11, 2014 Rise Set
Actual Time 6:25 AM CDT 8:22 PM CDT
Civil Twilight 5:57 AM CDT 8:50 PM CDT
Nautical Twilight 5:23 AM CDT 9:24 PM CDT
Astronomical Twilight 4:46 AM CDT 10:01 PM CDT
Moon 5:25 PM CDT (5/11) 4:24 AM CDT (5/11)
Length of Visible Light 14h 53m
Length of Day
13h 56m
Waxing Gibbous, 89% of the Moon is Illuminated
May 11
Waxing Gibbous
May 14
Full
May 21
Last Quarter
May 28
New
Jun 5
First Quarter

Hourly Weather History & Observations

Time (CDT) Temp. Heat Index Dew Point Humidity Pressure Visibility Wind Dir Wind Speed Gust Speed Precip Events Conditions
12:15 AM 75.2 °F - 69.8 °F 83% 29.76 in 10.0 mi South 15.0 mph 27.6 mph N/A   Clear
12:35 AM 75.2 °F - 69.8 °F 83% 29.76 in 10.0 mi South 15.0 mph 24.2 mph N/A   Clear
12:55 AM 75.2 °F - 69.8 °F 83% 29.76 in 10.0 mi South 11.5 mph 19.6 mph N/A   Clear
1:15 AM 75.2 °F - 69.8 °F 83% 29.76 in 10.0 mi South 11.5 mph 21.9 mph N/A   Clear
1:35 AM 73.4 °F - 69.8 °F 88% 29.76 in 10.0 mi South 12.7 mph 19.6 mph N/A   Clear
1:55 AM 73.4 °F - 71.6 °F 94% 29.75 in 10.0 mi South 11.5 mph 18.4 mph N/A   Clear
2:15 AM 73.4 °F - 71.6 °F 94% 29.74 in 10.0 mi South 15.0 mph 24.2 mph N/A   Clear
2:35 AM 73.4 °F - 71.6 °F 94% 29.74 in 10.0 mi South 17.3 mph 23.0 mph N/A   Clear
2:55 AM 73.4 °F - 71.6 °F 94% 29.73 in 10.0 mi South 15.0 mph 21.9 mph N/A   Clear
3:15 AM 73.4 °F - 71.6 °F 94% 29.73 in 10.0 mi South 16.1 mph 23.0 mph N/A   Clear
3:35 AM 73.4 °F - 71.6 °F 94% 29.73 in 10.0 mi South 16.1 mph 25.3 mph N/A   Clear
3:55 AM 73.4 °F - 71.6 °F 94% 29.73 in 10.0 mi South 15.0 mph 21.9 mph N/A   Clear
4:15 AM 73.4 °F - 71.6 °F 94% 29.73 in 10.0 mi South 15.0 mph 19.6 mph N/A   Scattered Clouds
4:35 AM 73.4 °F - 71.6 °F 94% 29.73 in 10.0 mi South 13.8 mph 24.2 mph N/A   Scattered Clouds
4:55 AM 73.4 °F - 73.4 °F 100% 29.74 in 10.0 mi South 16.1 mph 24.2 mph N/A   Mostly Cloudy
5:15 AM 73.4 °F - 71.6 °F 94% 29.74 in 10.0 mi South 15.0 mph 21.9 mph N/A   Mostly Cloudy
5:35 AM 73.4 °F - 71.6 °F 94% 29.74 in 10.0 mi South 15.0 mph 20.7 mph N/A   Overcast
5:55 AM 73.4 °F - 71.6 °F 94% 29.74 in 10.0 mi South 16.1 mph 23.0 mph N/A   Overcast
6:15 AM 73.4 °F - 69.8 °F 88% 29.74 in 10.0 mi South 17.3 mph 23.0 mph N/A   Overcast
6:35 AM 73.4 °F - 69.8 °F 88% 29.75 in 10.0 mi South 16.1 mph 24.2 mph N/A   Overcast
6:55 AM 73.4 °F - 69.8 °F 88% 29.76 in 10.0 mi South 13.8 mph 19.6 mph N/A   Overcast
7:15 AM 73.4 °F - 69.8 °F 88% 29.77 in 10.0 mi South 13.8 mph 20.7 mph N/A   Overcast
7:35 AM 73.4 °F - 69.8 °F 88% 29.77 in 10.0 mi South 12.7 mph 23.0 mph N/A   Overcast
7:55 AM 73.4 °F - 69.8 °F 88% 29.77 in 10.0 mi South 18.4 mph - N/A   Overcast
8:15 AM 73.4 °F - 69.8 °F 88% 29.78 in 10.0 mi SSW 18.4 mph 26.5 mph N/A   Mostly Cloudy
8:35 AM 75.2 °F - 69.8 °F 83% 29.78 in 10.0 mi South 19.6 mph 26.5 mph N/A   Mostly Cloudy
8:55 AM 77.0 °F - 69.8 °F 78% 29.78 in 10.0 mi SSW 18.4 mph 26.5 mph N/A   Mostly Cloudy
9:15 AM 77.0 °F - 69.8 °F 78% 29.78 in 7.0 mi South 18.4 mph 34.5 mph N/A   Mostly Cloudy
9:35 AM 78.8 °F - 69.8 °F 74% 29.78 in 10.0 mi South 21.9 mph 29.9 mph N/A   Mostly Cloudy
9:55 AM 78.8 °F - 69.8 °F 74% 29.78 in 10.0 mi South 18.4 mph 27.6 mph N/A   Mostly Cloudy
10:15 AM 78.8 °F - 69.8 °F 74% 29.77 in 7.0 mi SSW 23.0 mph 29.9 mph N/A   Mostly Cloudy
10:35 AM 78.8 °F - 69.8 °F 74% 29.77 in 10.0 mi South 25.3 mph 34.5 mph N/A   Mostly Cloudy
10:55 AM 80.6 °F 83.9 °F 69.8 °F 70% 29.77 in 10.0 mi SSW 21.9 mph 31.1 mph N/A   Mostly Cloudy
11:15 AM 80.6 °F 83.9 °F 69.8 °F 70% 29.78 in 10.0 mi South 26.5 mph 35.7 mph N/A   Mostly Cloudy
11:35 AM 80.6 °F 83.2 °F 68.0 °F 65% 29.78 in 10.0 mi SSW 21.9 mph 32.2 mph N/A   Mostly Cloudy
11:55 AM 82.4 °F 86.3 °F 69.8 °F 66% 29.77 in 7.0 mi South 18.4 mph 36.8 mph N/A   Mostly Cloudy
12:15 PM 82.4 °F 86.3 °F 69.8 °F 66% 29.77 in 10.0 mi SSW 23.0 mph 32.2 mph N/A   Scattered Clouds
12:35 PM 82.4 °F 86.3 °F 69.8 °F 66% 29.77 in 10.0 mi South 20.7 mph 32.2 mph N/A   Mostly Cloudy
12:55 PM 84.2 °F 88.4 °F 69.8 °F 62% 29.77 in 7.0 mi South 18.4 mph 32.2 mph N/A   Mostly Cloudy
1:15 PM 86.0 °F 90.4 °F 69.8 °F 58% 29.76 in 10.0 mi South 19.6 mph 28.8 mph N/A   Scattered Clouds
1:35 PM 86.0 °F 90.4 °F 69.8 °F 58% 29.76 in 10.0 mi South 23.0 mph 31.1 mph N/A   Mostly Cloudy
1:55 PM 86.0 °F 90.4 °F 69.8 °F 58% 29.74 in 10.0 mi South 21.9 mph 29.9 mph N/A   Mostly Cloudy
2:15 PM 86.0 °F 90.4 °F 69.8 °F 58% 29.74 in 10.0 mi South 19.6 mph 29.9 mph N/A   Scattered Clouds
2:35 PM 86.0 °F 90.4 °F 69.8 °F 58% 29.74 in 10.0 mi SSW 21.9 mph 27.6 mph N/A   Scattered Clouds
2:55 PM 86.0 °F 89.4 °F 68.0 °F 55% 29.72 in 10.0 mi South 25.3 mph 36.8 mph N/A   Mostly Cloudy
3:15 PM 87.8 °F 91.4 °F 68.0 °F 52% 29.71 in 7.0 mi South 21.9 mph 31.1 mph N/A   Scattered Clouds
3:35 PM 87.8 °F 91.4 °F 68.0 °F 52% 29.70 in 10.0 mi South 20.7 mph 32.2 mph N/A   Scattered Clouds
3:55 PM 87.8 °F 91.4 °F 68.0 °F 52% 29.68 in 10.0 mi South 27.6 mph 34.5 mph N/A   Scattered Clouds
4:15 PM 87.8 °F 91.4 °F 68.0 °F 52% 29.68 in 10.0 mi South 24.2 mph 35.7 mph N/A   Scattered Clouds
4:35 PM 87.8 °F 91.4 °F 68.0 °F 52% 29.67 in 10.0 mi South 23.0 mph 35.7 mph N/A   Scattered Clouds
4:55 PM 87.8 °F 91.4 °F 68.0 °F 52% 29.66 in 10.0 mi South 23.0 mph 36.8 mph N/A   Clear
5:15 PM 87.8 °F 91.4 °F 68.0 °F 52% 29.66 in 10.0 mi South 19.6 mph 31.1 mph N/A   Scattered Clouds
5:35 PM 87.8 °F 91.4 °F 68.0 °F 52% 29.65 in 10.0 mi South 23.0 mph 34.5 mph N/A   Scattered Clouds
5:55 PM 86.0 °F 89.4 °F 68.0 °F 55% 29.64 in 10.0 mi South 20.7 mph 33.4 mph N/A   Clear
6:15 PM 86.0 °F 89.4 °F 68.0 °F 55% 29.64 in 10.0 mi South 19.6 mph 36.8 mph N/A   Clear
6:35 PM 86.0 °F 89.4 °F 68.0 °F 55% 29.64 in 10.0 mi South 20.7 mph 27.6 mph N/A   Clear
6:55 PM 86.0 °F 89.4 °F 68.0 °F 55% 29.65 in 10.0 mi South 20.7 mph 32.2 mph N/A   Clear
7:15 PM 84.2 °F 87.3 °F 68.0 °F 58% 29.65 in 10.0 mi South 17.3 mph 34.5 mph N/A   Scattered Clouds
7:35 PM 82.4 °F 85.4 °F 68.0 °F 62% 29.65 in 10.0 mi South 18.4 mph 26.5 mph N/A   Scattered Clouds
7:55 PM 82.4 °F 85.4 °F 68.0 °F 62% 29.66 in 10.0 mi South 18.4 mph 29.9 mph N/A   Clear
8:15 PM 82.4 °F 86.3 °F 69.8 °F 66% 29.66 in 10.0 mi South 17.3 mph 25.3 mph N/A   Scattered Clouds
8:35 PM 80.6 °F 83.9 °F 69.8 °F 70% 29.67 in 10.0 mi South 16.1 mph 25.3 mph N/A   Scattered Clouds
8:55 PM 80.6 °F 83.9 °F 69.8 °F 70% 29.66 in 10.0 mi South 15.0 mph 27.6 mph N/A   Clear
9:15 PM 80.6 °F 83.9 °F 69.8 °F 70% 29.66 in 10.0 mi South 15.0 mph 25.3 mph N/A   Clear
9:35 PM 80.6 °F 83.9 °F 69.8 °F 70% 29.67 in 10.0 mi South 17.3 mph 26.5 mph N/A   Clear
9:55 PM 78.8 °F - 69.8 °F 74% 29.67 in 10.0 mi South 16.1 mph 27.6 mph N/A   Clear
10:15 PM 78.8 °F - 69.8 °F 74% 29.67 in 10.0 mi South 16.1 mph 27.6 mph N/A   Clear
10:35 PM 78.8 °F - 69.8 °F 74% 29.68 in 10.0 mi South 15.0 mph 23.0 mph N/A   Clear
10:55 PM 78.8 °F - 69.8 °F 74% 29.69 in 10.0 mi South 18.4 mph 25.3 mph N/A   Clear
11:15 PM 78.8 °F - 71.6 °F 78% 29.70 in 10.0 mi South 16.1 mph 25.3 mph N/A   Clear
11:35 PM 78.8 °F - 71.6 °F 78% 29.70 in 10.0 mi South 15.0 mph 21.9 mph N/A   Clear
11:55 PM 78.8 °F - 71.6 °F 78% 29.70 in 10.0 mi South 16.1 mph 26.5 mph N/A   Clear